Terminal Aerodrome Forecast
Issued by NWS North Platte, NE

Home | Current Version | Previous Version | Graphics & Text | Print | Product List | Glossary On
Versions: 1 2 3 4 5 6 7 8 9 10 11 12 13 14 15 16 17 18 19
860
FTUS43 KLBF 261421 AAA
TAFVTN
TAF AMD
KVTN 261421Z 2614/2712 33014KT P6SM OVC012
     FM261700 33015KT P6SM FEW015 BKN050
     FM270000 36010KT P6SM SCT200=

USA.gov is the U.S. government's official web portal to all federal, state and local government web resources and services.